sensor_id;sensor_type;location;lat;lon;timestamp;pressure;altitude;pressure_sealevel;temperature;humidity
8075;BME280;4080;42.676;23.372;2024-01-06T00:01:10;94915.50;;;5.93;100.00
8075;BME280;4080;42.676;23.372;2024-01-06T00:03:39;94933.22;;;6.25;100.00
8075;BME280;4080;42.676;23.372;2024-01-06T00:06:06;94941.19;;;6.35;100.00
8075;BME280;4080;42.676;23.372;2024-01-06T00:08:33;94932.69;;;6.44;100.00
8075;BME280;4080;42.676;23.372;2024-01-06T00:11:00;94929.09;;;6.50;100.00
8075;BME280;4080;42.676;23.372;2024-01-06T00:13:28;94925.50;;;6.57;100.00
8075;BME280;4080;42.676;23.372;2024-01-06T00:15:55;94899.47;;;6.50;100.00
8075;BME280;4080;42.676;23.372;2024-01-06T00:18:22;94901.91;;;6.57;100.00
8075;BME280;4080;42.676;23.372;2024-01-06T00:20:50;94910.75;;;6.50;100.00
8075;BME280;4080;42.676;23.372;2024-01-06T00:23:17;94935.41;;;6.33;100.00
8075;BME280;4080;42.676;23.372;2024-01-06T00:25:44;94903.44;;;5.92;100.00
8075;BME280;4080;42.676;23.372;2024-01-06T00:28:11;94942.34;;;6.22;100.00
8075;BME280;4080;42.676;23.372;2024-01-06T00:30:38;94932.72;;;6.28;100.00
8075;BME280;4080;42.676;23.372;2024-01-06T00:33:05;94928.88;;;6.35;100.00
8075;BME280;4080;42.676;23.372;2024-01-06T00:35:32;94923.88;;;6.34;100.00
8075;BME280;4080;42.676;23.372;2024-01-06T00:38:00;94950.03;;;6.29;100.00
8075;BME280;4080;42.676;23.372;2024-01-06T00:40:27;94950.13;;;6.17;100.00
8075;BME280;4080;42.676;23.372;2024-01-06T00:42:54;94948.00;;;6.14;100.00
8075;BME280;4080;42.676;23.372;2024-01-06T00:45:21;94858.78;;;5.65;100.00
8075;BME280;4080;42.676;23.372;2024-01-06T00:47:48;94946.00;;;6.21;100.00
8075;BME280;4080;42.676;23.372;2024-01-06T00:50:15;94935.59;;;6.26;100.00
8075;BME280;4080;42.676;23.372;2024-01-06T00:52:42;94920.19;;;6.30;100.00
8075;BME280;4080;42.676;23.372;2024-01-06T00:55:10;94914.44;;;6.33;100.00
8075;BME280;4080;42.676;23.372;2024-01-06T00:57:37;94921.16;;;6.23;100.00
8075;BME280;4080;42.676;23.372;2024-01-06T01:00:05;94941.72;;;6.15;100.00
8075;BME280;4080;42.676;23.372;2024-01-06T01:02:32;94936.88;;;6.07;100.00
8075;BME280;4080;42.676;23.372;2024-01-06T01:04:59;94928.41;;;6.00;100.00
8075;BME280;4080;42.676;23.372;2024-01-06T01:07:27;94919.09;;;6.09;100.00
8075;BME280;4080;42.676;23.372;2024-01-06T01:09:54;94936.75;;;6.13;100.00
8075;BME280;4080;42.676;23.372;2024-01-06T01:12:25;94932.75;;;6.11;100.00
8075;BME280;4080;42.676;23.372;2024-01-06T01:14:53;94928.22;;;6.06;100.00
8075;BME280;4080;42.676;23.372;2024-01-06T01:17:20;94925.84;;;6.05;100.00
8075;BME280;4080;42.676;23.372;2024-01-06T01:19:47;94925.78;;;6.00;100.00
8075;BME280;4080;42.676;23.372;2024-01-06T01:22:12;94923.66;;;5.97;100.00
8075;BME280;4080;42.676;23.372;2024-01-06T01:24:39;94921.84;;;5.97;100.00
8075;BME280;4080;42.676;23.372;2024-01-06T01:27:06;94921.66;;;6.04;100.00
8075;BME280;4080;42.676;23.372;2024-01-06T01:29:35;94914.22;;;5.96;100.00
8075;BME280;4080;42.676;23.372;2024-01-06T01:32:02;94922.63;;;5.98;100.00
8075;BME280;4080;42.676;23.372;2024-01-06T01:34:29;94912.94;;;5.98;100.00
8075;BME280;4080;42.676;23.372;2024-01-06T01:36:56;94892.63;;;5.88;100.00
8075;BME280;4080;42.676;23.372;2024-01-06T01:39:23;94904.84;;;6.00;100.00
8075;BME280;4080;42.676;23.372;2024-01-06T01:41:50;94890.72;;;6.01;100.00
8075;BME280;4080;42.676;23.372;2024-01-06T01:44:17;94892.31;;;6.02;100.00
8075;BME280;4080;42.676;23.372;2024-01-06T01:46:45;94888.66;;;6.03;100.00
8075;BME280;4080;42.676;23.372;2024-01-06T01:49:12;94885.53;;;6.06;100.00
8075;BME280;4080;42.676;23.372;2024-01-06T01:51:39;94895.00;;;6.07;100.00
8075;BME280;4080;42.676;23.372;2024-01-06T01:54:08;94887.06;;;6.02;100.00
8075;BME280;4080;42.676;23.372;2024-01-06T01:56:36;94888.34;;;5.99;100.00
8075;BME280;4080;42.676;23.372;2024-01-06T01:59:05;94868.84;;;5.90;100.00
8075;BME280;4080;42.676;23.372;2024-01-06T02:01:33;94884.47;;;5.85;100.00
8075;BME280;4080;42.676;23.372;2024-01-06T02:04:02;94890.88;;;5.77;100.00
8075;BME280;4080;42.676;23.372;2024-01-06T02:06:29;94897.25;;;5.65;100.00
8075;BME280;4080;42.676;23.372;2024-01-06T02:08:55;94877.44;;;5.52;100.00
8075;BME280;4080;42.676;23.372;2024-01-06T02:11:23;94878.84;;;5.43;100.00
8075;BME280;4080;42.676;23.372;2024-01-06T02:13:50;94882.34;;;5.32;100.00
8075;BME280;4080;42.676;23.372;2024-01-06T02:16:17;94859.84;;;5.30;100.00
8075;BME280;4080;42.676;23.372;2024-01-06T02:18:44;94853.97;;;5.40;100.00
8075;BME280;4080;42.676;23.372;2024-01-06T02:21:13;94849.13;;;5.49;100.00
8075;BME280;4080;42.676;23.372;2024-01-06T02:23:42;94829.47;;;5.46;100.00
8075;BME280;4080;42.676;23.372;2024-01-06T02:26:10;94819.81;;;5.30;100.00
8075;BME280;4080;42.676;23.372;2024-01-06T02:28:37;94851.50;;;5.50;100.00
8075;BME280;4080;42.676;23.372;2024-01-06T02:31:03;94849.06;;;5.44;100.00
8075;BME280;4080;42.676;23.372;2024-01-06T02:33:30;94836.03;;;5.49;100.00
8075;BME280;4080;42.676;23.372;2024-01-06T02:35:57;94841.13;;;5.55;100.00
8075;BME280;4080;42.676;23.372;2024-01-06T02:38:24;94819.66;;;5.53;100.00
8075;BME280;4080;42.676;23.372;2024-01-06T02:40:52;94838.03;;;5.58;100.00
8075;BME280;4080;42.676;23.372;2024-01-06T02:43:19;94842.72;;;5.56;100.00
8075;BME280;4080;42.676;23.372;2024-01-06T02:45:47;94826.28;;;5.61;100.00
8075;BME280;4080;42.676;23.372;2024-01-06T02:48:14;94766.25;;;5.33;100.00
8075;BME280;4080;42.676;23.372;2024-01-06T02:50:41;94820.09;;;5.67;100.00
8075;BME280;4080;42.676;23.372;2024-01-06T02:53:08;94828.25;;;5.71;100.00
8075;BME280;4080;42.676;23.372;2024-01-06T02:55:38;94829.34;;;5.75;100.00
8075;BME280;4080;42.676;23.372;2024-01-06T02:58:06;94820.75;;;5.79;100.00
8075;BME280;4080;42.676;23.372;2024-01-06T03:00:33;94813.56;;;5.86;100.00
8075;BME280;4080;42.676;23.372;2024-01-06T03:03:00;94803.97;;;5.92;100.00
8075;BME280;4080;42.676;23.372;2024-01-06T03:05:27;94797.75;;;5.98;100.00
8075;BME280;4080;42.676;23.372;2024-01-06T03:07:54;94786.19;;;5.94;100.00
8075;BME280;4080;42.676;23.372;2024-01-06T03:10:20;94795.47;;;6.07;100.00
8075;BME280;4080;42.676;23.372;2024-01-06T03:12:47;94790.88;;;6.14;100.00
8075;BME280;4080;42.676;23.372;2024-01-06T03:15:15;94804.28;;;6.17;100.00
8075;BME280;4080;42.676;23.372;2024-01-06T03:17:42;94794.34;;;6.19;100.00
8075;BME280;4080;42.676;23.372;2024-01-06T03:20:10;94801.41;;;6.19;100.00
8075;BME280;4080;42.676;23.372;2024-01-06T03:22:37;94796.56;;;6.11;100.00
8075;BME280;4080;42.676;23.372;2024-01-06T03:25:05;94785.25;;;6.05;100.00
8075;BME280;4080;42.676;23.372;2024-01-06T03:27:32;94789.47;;;6.06;100.00
8075;BME280;4080;42.676;23.372;2024-01-06T03:29:59;94786.06;;;6.06;100.00
8075;BME280;4080;42.676;23.372;2024-01-06T03:32:27;94793.66;;;6.07;100.00
8075;BME280;4080;42.676;23.372;2024-01-06T03:34:54;94797.38;;;6.11;100.00
8075;BME280;4080;42.676;23.372;2024-01-06T03:37:21;94786.84;;;6.06;100.00
8075;BME280;4080;42.676;23.372;2024-01-06T03:39:48;94777.94;;;6.07;100.00
8075;BME280;4080;42.676;23.372;2024-01-06T03:42:15;94786.34;;;6.09;100.00
8075;BME280;4080;42.676;23.372;2024-01-06T03:44:42;94789.28;;;6.13;100.00
8075;BME280;4080;42.676;23.372;2024-01-06T03:47:09;94792.91;;;6.12;100.00
8075;BME280;4080;42.676;23.372;2024-01-06T03:49:38;94782.53;;;6.17;100.00
8075;BME280;4080;42.676;23.372;2024-01-06T03:52:05;94788.31;;;6.19;100.00
8075;BME280;4080;42.676;23.372;2024-01-06T03:54:32;94795.78;;;6.10;100.00
8075;BME280;4080;42.676;23.372;2024-01-06T03:56:59;94779.19;;;6.00;100.00
8075;BME280;4080;42.676;23.372;2024-01-06T03:59:26;94779.38;;;5.93;100.00
8075;BME280;4080;42.676;23.372;2024-01-06T04:01:52;94785.31;;;5.88;100.00
8075;BME280;4080;42.676;23.372;2024-01-06T04:04:20;94786.34;;;5.87;100.00
8075;BME280;4080;42.676;23.372;2024-01-06T04:06:48;94780.31;;;5.87;100.00
8075;BME280;4080;42.676;23.372;2024-01-06T04:09:15;94784.13;;;5.96;100.00
8075;BME280;4080;42.676;23.372;2024-01-06T04:11:42;94793.16;;;5.88;100.00
8075;BME280;4080;42.676;23.372;2024-01-06T04:14:09;94791.56;;;5.87;100.00
8075;BME280;4080;42.676;23.372;2024-01-06T04:16:36;94791.03;;;5.85;100.00
8075;BME280;4080;42.676;23.372;2024-01-06T04:19:02;94796.75;;;5.82;100.00
8075;BME280;4080;42.676;23.372;2024-01-06T04:21:32;94774.78;;;5.83;100.00
8075;BME280;4080;42.676;23.372;2024-01-06T04:24:00;94775.81;;;5.82;100.00
8075;BME280;4080;42.676;23.372;2024-01-06T04:26:27;94793.50;;;5.75;100.00
8075;BME280;4080;42.676;23.372;2024-01-06T04:28:54;94786.88;;;5.68;100.00
8075;BME280;4080;42.676;23.372;2024-01-06T04:31:21;94783.34;;;5.57;100.00
8075;BME280;4080;42.676;23.372;2024-01-06T04:33:47;94797.50;;;5.61;100.00
8075;BME280;4080;42.676;23.372;2024-01-06T04:36:14;94793.13;;;5.67;100.00
8075;BME280;4080;42.676;23.372;2024-01-06T04:38:41;94808.59;;;5.68;100.00
8075;BME280;4080;42.676;23.372;2024-01-06T04:41:09;94818.50;;;5.66;100.00
8075;BME280;4080;42.676;23.372;2024-01-06T04:43:36;94807.56;;;5.69;100.00
8075;BME280;4080;42.676;23.372;2024-01-06T04:46:03;94797.63;;;5.71;100.00
8075;BME280;4080;42.676;23.372;2024-01-06T04:48:30;94804.75;;;5.76;100.00
8075;BME280;4080;42.676;23.372;2024-01-06T04:50:57;94804.13;;;5.85;100.00
8075;BME280;4080;42.676;23.372;2024-01-06T04:53:24;94793.78;;;5.96;100.00
8075;BME280;4080;42.676;23.372;2024-01-06T04:55:51;94804.38;;;6.06;100.00
8075;BME280;4080;42.676;23.372;2024-01-06T04:58:19;94819.94;;;6.12;100.00
8075;BME280;4080;42.676;23.372;2024-01-06T05:00:46;94816.31;;;6.18;100.00
8075;BME280;4080;42.676;23.372;2024-01-06T05:03:13;94805.59;;;6.20;100.00
8075;BME280;4080;42.676;23.372;2024-01-06T05:05:40;94804.13;;;6.29;100.00
8075;BME280;4080;42.676;23.372;2024-01-06T05:08:07;94818.06;;;6.35;100.00
8075;BME280;4080;42.676;23.372;2024-01-06T05:10:34;94796.28;;;6.29;100.00
8075;BME280;4080;42.676;23.372;2024-01-06T05:13:01;94755.41;;;6.06;100.00
8075;BME280;4080;42.676;23.372;2024-01-06T05:15:29;94782.44;;;6.12;100.00
8075;BME280;4080;42.676;23.372;2024-01-06T05:17:56;94783.38;;;6.01;100.00
8075;BME280;4080;42.676;23.372;2024-01-06T05:20:23;94779.13;;;5.56;100.00
8075;BME280;4080;42.676;23.372;2024-01-06T05:22:50;94787.91;;;5.50;100.00
8075;BME280;4080;42.676;23.372;2024-01-06T05:25:18;94779.94;;;5.40;100.00
8075;BME280;4080;42.676;23.372;2024-01-06T05:27:44;94775.75;;;5.39;100.00
8075;BME280;4080;42.676;23.372;2024-01-06T05:30:12;94773.69;;;5.41;100.00
8075;BME280;4080;42.676;23.372;2024-01-06T05:32:40;94769.53;;;5.45;100.00
8075;BME280;4080;42.676;23.372;2024-01-06T05:35:07;94773.91;;;5.56;100.00
8075;BME280;4080;42.676;23.372;2024-01-06T05:37:34;94772.13;;;5.61;100.00
8075;BME280;4080;42.676;23.372;2024-01-06T05:40:01;94762.28;;;5.69;100.00
8075;BME280;4080;42.676;23.372;2024-01-06T05:42:29;94764.16;;;5.73;100.00
8075;BME280;4080;42.676;23.372;2024-01-06T05:44:55;94768.41;;;5.79;100.00
8075;BME280;4080;42.676;23.372;2024-01-06T05:47:42;94774.38;;;5.91;100.00
8075;BME280;4080;42.676;23.372;2024-01-06T05:50:10;94747.81;;;5.83;100.00
8075;BME280;4080;42.676;23.372;2024-01-06T05:52:37;94768.59;;;5.89;100.00
8075;BME280;4080;42.676;23.372;2024-01-06T05:55:04;94778.44;;;5.82;100.00
8075;BME280;4080;42.676;23.372;2024-01-06T05:57:31;94766.94;;;5.83;100.00
8075;BME280;4080;42.676;23.372;2024-01-06T05:59:59;94751.13;;;5.78;100.00
8075;BME280;4080;42.676;23.372;2024-01-06T06:02:26;94767.84;;;5.94;100.00
8075;BME280;4080;42.676;23.372;2024-01-06T06:04:54;94769.44;;;5.95;100.00
8075;BME280;4080;42.676;23.372;2024-01-06T06:07:21;94777.34;;;6.00;100.00
8075;BME280;4080;42.676;23.372;2024-01-06T06:09:48;94758.19;;;5.95;100.00
8075;BME280;4080;42.676;23.372;2024-01-06T06:12:15;94770.09;;;6.07;100.00
8075;BME280;4080;42.676;23.372;2024-01-06T06:14:42;94766.44;;;6.08;100.00
8075;BME280;4080;42.676;23.372;2024-01-06T06:17:09;94768.50;;;6.06;100.00
8075;BME280;4080;42.676;23.372;2024-01-06T06:19:36;94759.38;;;6.09;100.00
8075;BME280;4080;42.676;23.372;2024-01-06T06:22:04;94758.16;;;6.16;100.00
8075;BME280;4080;42.676;23.372;2024-01-06T06:24:31;94753.47;;;6.18;100.00
8075;BME280;4080;42.676;23.372;2024-01-06T06:26:58;94757.22;;;6.28;100.00
8075;BME280;4080;42.676;23.372;2024-01-06T06:29:25;94740.63;;;6.17;100.00
8075;BME280;4080;42.676;23.372;2024-01-06T06:31:52;94766.38;;;6.25;100.00
8075;BME280;4080;42.676;23.372;2024-01-06T06:34:19;94760.53;;;6.18;100.00
8075;BME280;4080;42.676;23.372;2024-01-06T06:36:45;94773.19;;;6.26;100.00
8075;BME280;4080;42.676;23.372;2024-01-06T06:39:14;94773.19;;;6.26;100.00
8075;BME280;4080;42.676;23.372;2024-01-06T06:41:41;94776.66;;;6.32;100.00
8075;BME280;4080;42.676;23.372;2024-01-06T06:44:08;94764.28;;;6.27;100.00
8075;BME280;4080;42.676;23.372;2024-01-06T06:46:36;94767.88;;;6.43;100.00
8075;BME280;4080;42.676;23.372;2024-01-06T06:49:03;94772.53;;;6.41;100.00
8075;BME280;4080;42.676;23.372;2024-01-06T06:51:30;94785.34;;;6.37;100.00
8075;BME280;4080;42.676;23.372;2024-01-06T06:53:57;94782.19;;;6.35;100.00
8075;BME280;4080;42.676;23.372;2024-01-06T06:56:25;94767.31;;;6.41;100.00
8075;BME280;4080;42.676;23.372;2024-01-06T06:58:52;94764.22;;;6.44;100.00
8075;BME280;4080;42.676;23.372;2024-01-06T07:01:19;94777.00;;;6.40;100.00
8075;BME280;4080;42.676;23.372;2024-01-06T07:03:46;94768.66;;;6.43;100.00
8075;BME280;4080;42.676;23.372;2024-01-06T07:06:15;94748.63;;;6.32;100.00
8075;BME280;4080;42.676;23.372;2024-01-06T07:08:42;94771.63;;;6.52;100.00
8075;BME280;4080;42.676;23.372;2024-01-06T07:11:09;94763.03;;;6.57;100.00
8075;BME280;4080;42.676;23.372;2024-01-06T07:13:38;94749.09;;;6.51;100.00
8075;BME280;4080;42.676;23.372;2024-01-06T07:16:06;94766.13;;;6.53;100.00
8075;BME280;4080;42.676;23.372;2024-01-06T07:18:33;94760.09;;;6.53;100.00
8075;BME280;4080;42.676;23.372;2024-01-06T07:21:00;94765.69;;;6.62;100.00
8075;BME280;4080;42.676;23.372;2024-01-06T07:23:27;94752.00;;;6.54;100.00
8075;BME280;4080;42.676;23.372;2024-01-06T07:25:55;94755.69;;;6.59;100.00
8075;BME280;4080;42.676;23.372;2024-01-06T07:28:22;94755.78;;;6.69;100.00
8075;BME280;4080;42.676;23.372;2024-01-06T07:30:50;94766.41;;;6.84;100.00
8075;BME280;4080;42.676;23.372;2024-01-06T07:33:17;94764.56;;;6.84;100.00
8075;BME280;4080;42.676;23.372;2024-01-06T07:35:44;94762.78;;;6.90;100.00
8075;BME280;4080;42.676;23.372;2024-01-06T07:38:11;94760.47;;;6.99;100.00
8075;BME280;4080;42.676;23.372;2024-01-06T07:40:38;94740.66;;;7.08;100.00
8075;BME280;4080;42.676;23.372;2024-01-06T07:43:05;94772.16;;;7.13;100.00
8075;BME280;4080;42.676;23.372;2024-01-06T07:45:32;94713.28;;;6.99;100.00
8075;BME280;4080;42.676;23.372;2024-01-06T07:48:01;94747.09;;;6.95;100.00
8075;BME280;4080;42.676;23.372;2024-01-06T07:50:28;94756.16;;;6.82;100.00
8075;BME280;4080;42.676;23.372;2024-01-06T07:52:55;94753.06;;;6.85;100.00
8075;BME280;4080;42.676;23.372;2024-01-06T07:55:23;94765.69;;;6.94;100.00
8075;BME280;4080;42.676;23.372;2024-01-06T07:57:54;94745.09;;;7.07;100.00
8075;BME280;4080;42.676;23.372;2024-01-06T08:00:21;94752.53;;;7.26;100.00
8075;BME280;4080;42.676;23.372;2024-01-06T08:02:48;94733.28;;;7.47;100.00
8075;BME280;4080;42.676;23.372;2024-01-06T08:05:16;94767.56;;;7.77;100.00
8075;BME280;4080;42.676;23.372;2024-01-06T08:07:43;94755.25;;;7.88;100.00
8075;BME280;4080;42.676;23.372;2024-01-06T08:10:10;94774.41;;;7.89;100.00
8075;BME280;4080;42.676;23.372;2024-01-06T08:12:37;94759.72;;;7.88;100.00
8075;BME280;4080;42.676;23.372;2024-01-06T08:15:05;94789.63;;;7.82;100.00
8075;BME280;4080;42.676;23.372;2024-01-06T08:17:34;94760.19;;;7.79;100.00
8075;BME280;4080;42.676;23.372;2024-01-06T08:20:01;94773.13;;;7.91;100.00
8075;BME280;4080;42.676;23.372;2024-01-06T08:22:30;94742.06;;;8.40;100.00
8075;BME280;4080;42.676;23.372;2024-01-06T08:24:57;94763.66;;;8.73;100.00
8075;BME280;4080;42.676;23.372;2024-01-06T08:27:24;94758.66;;;9.27;100.00
8075;BME280;4080;42.676;23.372;2024-01-06T08:29:51;94775.75;;;9.40;100.00
8075;BME280;4080;42.676;23.372;2024-01-06T08:32:18;94769.19;;;9.38;100.00
8075;BME280;4080;42.676;23.372;2024-01-06T08:34:45;94773.81;;;9.86;100.00
8075;BME280;4080;42.676;23.372;2024-01-06T08:37:12;94775.31;;;10.23;100.00
8075;BME280;4080;42.676;23.372;2024-01-06T08:39:41;94768.75;;;10.10;100.00
8075;BME280;4080;42.676;23.372;2024-01-06T08:42:08;94774.19;;;9.34;100.00
8075;BME280;4080;42.676;23.372;2024-01-06T08:44:35;94735.53;;;8.99;100.00
8075;BME280;4080;42.676;23.372;2024-01-06T08:47:02;94778.09;;;9.47;100.00
8075;BME280;4080;42.676;23.372;2024-01-06T08:49:29;94752.06;;;9.50;100.00
8075;BME280;4080;42.676;23.372;2024-01-06T08:51:56;94776.28;;;9.42;100.00
8075;BME280;4080;42.676;23.372;2024-01-06T08:54:23;94774.72;;;9.36;100.00
8075;BME280;4080;42.676;23.372;2024-01-06T08:56:52;94765.25;;;9.25;100.00
8075;BME280;4080;42.676;23.372;2024-01-06T08:59:19;94768.69;;;9.20;100.00
8075;BME280;4080;42.676;23.372;2024-01-06T09:01:46;94770.75;;;9.33;100.00
8075;BME280;4080;42.676;23.372;2024-01-06T09:04:13;94732.81;;;9.60;100.00
8075;BME280;4080;42.676;23.372;2024-01-06T09:06:40;94734.06;;;9.73;100.00
8075;BME280;4080;42.676;23.372;2024-01-06T09:09:08;94742.44;;;9.95;100.00
8075;BME280;4080;42.676;23.372;2024-01-06T09:11:36;94740.84;;;10.93;100.00
8075;BME280;4080;42.676;23.372;2024-01-06T09:14:04;94726.53;;;11.33;100.00
8075;BME280;4080;42.676;23.372;2024-01-06T09:16:31;94747.91;;;11.31;100.00
8075;BME280;4080;42.676;23.372;2024-01-06T09:18:58;94743.19;;;11.28;100.00
8075;BME280;4080;42.676;23.372;2024-01-06T09:21:25;94724.06;;;11.41;100.00
8075;BME280;4080;42.676;23.372;2024-01-06T09:23:52;94730.47;;;11.35;100.00
8075;BME280;4080;42.676;23.372;2024-01-06T09:26:19;94737.91;;;11.28;100.00
8075;BME280;4080;42.676;23.372;2024-01-06T09:28:46;94697.84;;;10.92;100.00
8075;BME280;4080;42.676;23.372;2024-01-06T09:31:15;94713.84;;;11.06;100.00
8075;BME280;4080;42.676;23.372;2024-01-06T09:33:42;94708.91;;;10.94;100.00
8075;BME280;4080;42.676;23.372;2024-01-06T09:36:09;94716.72;;;10.75;100.00
8075;BME280;4080;42.676;23.372;2024-01-06T09:38:37;94714.84;;;10.42;100.00
8075;BME280;4080;42.676;23.372;2024-01-06T09:41:04;94689.66;;;10.20;100.00
8075;BME280;4080;42.676;23.372;2024-01-06T09:43:31;94661.38;;;9.77;100.00
8075;BME280;4080;42.676;23.372;2024-01-06T09:46:05;94663.28;;;9.61;100.00
8075;BME280;4080;42.676;23.372;2024-01-06T09:48:37;94698.59;;;9.45;100.00
8075;BME280;4080;42.676;23.372;2024-01-06T09:51:09;94682.63;;;9.16;100.00
8075;BME280;4080;42.676;23.372;2024-01-06T09:53:43;94686.84;;;9.12;100.00
8075;BME280;4080;42.676;23.372;2024-01-06T09:56:15;94665.00;;;9.11;100.00
8075;BME280;4080;42.676;23.372;2024-01-06T09:58:43;94655.78;;;9.14;100.00
8075;BME280;4080;42.676;23.372;2024-01-06T10:01:11;94666.56;;;9.12;100.00
8075;BME280;4080;42.676;23.372;2024-01-06T10:03:41;94644.25;;;8.94;100.00
8075;BME280;4080;42.676;23.372;2024-01-06T10:06:08;94667.41;;;8.92;100.00
8075;BME280;4080;42.676;23.372;2024-01-06T10:08:35;94636.63;;;8.93;100.00
8075;BME280;4080;42.676;23.372;2024-01-06T10:11:02;94641.66;;;8.59;100.00
8075;BME280;4080;42.676;23.372;2024-01-06T10:13:29;94640.84;;;8.74;100.00
8075;BME280;4080;42.676;23.372;2024-01-06T10:15:56;94626.13;;;8.52;100.00
8075;BME280;4080;42.676;23.372;2024-01-06T10:18:25;94633.47;;;8.81;100.00
8075;BME280;4080;42.676;23.372;2024-01-06T10:20:54;94645.34;;;8.88;100.00
8075;BME280;4080;42.676;23.372;2024-01-06T10:23:22;94618.25;;;8.88;100.00
8075;BME280;4080;42.676;23.372;2024-01-06T10:25:53;94622.16;;;8.80;100.00
8075;BME280;4080;42.676;23.372;2024-01-06T10:28:21;94621.09;;;8.86;100.00
8075;BME280;4080;42.676;23.372;2024-01-06T10:30:49;94583.84;;;8.59;100.00
8075;BME280;4080;42.676;23.372;2024-01-06T10:33:18;94611.66;;;8.80;100.00
8075;BME280;4080;42.676;23.372;2024-01-06T10:35:45;94613.78;;;8.68;100.00
8075;BME280;4080;42.676;23.372;2024-01-06T10:38:14;94600.38;;;8.69;100.00
8075;BME280;4080;42.676;23.372;2024-01-06T10:40:55;94585.63;;;8.74;100.00
8075;BME280;4080;42.676;23.372;2024-01-06T10:43:25;94612.47;;;8.76;100.00
8075;BME280;4080;42.676;23.372;2024-01-06T10:45:53;94593.22;;;8.85;100.00
8075;BME280;4080;42.676;23.372;2024-01-06T10:48:24;94595.84;;;9.00;100.00
8075;BME280;4080;42.676;23.372;2024-01-06T10:50:51;94584.75;;;9.09;100.00
8075;BME280;4080;42.676;23.372;2024-01-06T10:53:20;94583.69;;;9.15;100.00
8075;BME280;4080;42.676;23.372;2024-01-06T10:55:49;94570.78;;;9.13;100.00
8075;BME280;4080;42.676;23.372;2024-01-06T10:58:17;94575.78;;;9.25;100.00
8075;BME280;4080;42.676;23.372;2024-01-06T11:00:44;94549.53;;;9.05;100.00
8075;BME280;4080;42.676;23.372;2024-01-06T11:03:13;94567.81;;;9.35;100.00
8075;BME280;4080;42.676;23.372;2024-01-06T11:05:40;94525.84;;;9.05;100.00
8075;BME280;4080;42.676;23.372;2024-01-06T11:08:08;94552.53;;;9.42;100.00
8075;BME280;4080;42.676;23.372;2024-01-06T11:10:37;94543.06;;;9.41;100.00
8075;BME280;4080;42.676;23.372;2024-01-06T11:13:09;94549.34;;;9.50;100.00
8075;BME280;4080;42.676;23.372;2024-01-06T11:15:42;94541.97;;;9.47;100.00
8075;BME280;4080;42.676;23.372;2024-01-06T11:18:09;94551.56;;;9.72;100.00
8075;BME280;4080;42.676;23.372;2024-01-06T11:20:36;94545.19;;;9.83;100.00
8075;BME280;4080;42.676;23.372;2024-01-06T11:26:02;94536.97;;;11.30;100.00
8075;BME280;4080;42.676;23.372;2024-01-06T11:28:30;94531.28;;;11.41;100.00
8075;BME280;4080;42.676;23.372;2024-01-06T11:31:05;94528.44;;;11.57;100.00
8075;BME280;4080;42.676;23.372;2024-01-06T11:33:41;94532.72;;;12.28;100.00
8075;BME280;4080;42.676;23.372;2024-01-06T11:36:08;94517.53;;;13.07;100.00
8075;BME280;4080;42.676;23.372;2024-01-06T11:38:37;94535.75;;;13.63;100.00
8075;BME280;4080;42.676;23.372;2024-01-06T11:41:07;94504.19;;;13.53;100.00
8075;BME280;4080;42.676;23.372;2024-01-06T11:43:38;94498.25;;;13.70;100.00
8075;BME280;4080;42.676;23.372;2024-01-06T11:46:06;94516.38;;;13.54;100.00
8075;BME280;4080;42.676;23.372;2024-01-06T11:48:34;94501.66;;;13.34;100.00
8075;BME280;4080;42.676;23.372;2024-01-06T11:51:03;94497.34;;;12.97;100.00
8075;BME280;4080;42.676;23.372;2024-01-06T11:53:30;94481.16;;;12.58;100.00
8075;BME280;4080;42.676;23.372;2024-01-06T11:55:59;94481.41;;;12.42;100.00
8075;BME280;4080;42.676;23.372;2024-01-06T11:58:29;94469.88;;;12.52;100.00
8075;BME280;4080;42.676;23.372;2024-01-06T12:00:56;94458.22;;;12.81;100.00
8075;BME280;4080;42.676;23.372;2024-01-06T12:03:22;94458.16;;;12.86;100.00
8075;BME280;4080;42.676;23.372;2024-01-06T12:05:59;94465.19;;;12.63;100.00
8075;BME280;4080;42.676;23.372;2024-01-06T12:08:27;94473.50;;;12.42;100.00
8075;BME280;4080;42.676;23.372;2024-01-06T12:11:02;94434.16;;;12.08;100.00
8075;BME280;4080;42.676;23.372;2024-01-06T12:13:31;94449.84;;;12.19;100.00
8075;BME280;4080;42.676;23.372;2024-01-06T12:15:58;94423.47;;;12.00;100.00
8075;BME280;4080;42.676;23.372;2024-01-06T12:18:25;94401.16;;;11.73;100.00
8075;BME280;4080;42.676;23.372;2024-01-06T12:20:52;94408.72;;;11.61;100.00
8075;BME280;4080;42.676;23.372;2024-01-06T12:23:26;94408.22;;;11.59;100.00
8075;BME280;4080;42.676;23.372;2024-01-06T12:25:53;94406.38;;;11.60;100.00
8075;BME280;4080;42.676;23.372;2024-01-06T12:28:20;94437.06;;;11.56;100.00
8075;BME280;4080;42.676;23.372;2024-01-06T12:30:48;94453.34;;;11.44;100.00
8075;BME280;4080;42.676;23.372;2024-01-06T12:33:15;94455.91;;;11.30;100.00
8075;BME280;4080;42.676;23.372;2024-01-06T12:35:42;94454.00;;;11.17;100.00
8075;BME280;4080;42.676;23.372;2024-01-06T12:38:09;94444.06;;;11.09;100.00
8075;BME280;4080;42.676;23.372;2024-01-06T12:40:37;94432.50;;;11.05;100.00
8075;BME280;4080;42.676;23.372;2024-01-06T12:43:04;94431.22;;;11.02;100.00
8075;BME280;4080;42.676;23.372;2024-01-06T12:45:31;94429.53;;;11.11;100.00
8075;BME280;4080;42.676;23.372;2024-01-06T12:47:59;94422.97;;;11.09;100.00
8075;BME280;4080;42.676;23.372;2024-01-06T12:50:26;94423.81;;;11.23;100.00
8075;BME280;4080;42.676;23.372;2024-01-06T12:52:53;94414.03;;;11.42;100.00
8075;BME280;4080;42.676;23.372;2024-01-06T12:55:20;94402.34;;;11.62;100.00
8075;BME280;4080;42.676;23.372;2024-01-06T12:57:47;94398.78;;;11.72;100.00
8075;BME280;4080;42.676;23.372;2024-01-06T13:00:15;94417.00;;;11.73;100.00
8075;BME280;4080;42.676;23.372;2024-01-06T13:02:42;94414.72;;;11.67;100.00
8075;BME280;4080;42.676;23.372;2024-01-06T13:05:10;94392.38;;;11.78;100.00
8075;BME280;4080;42.676;23.372;2024-01-06T13:07:38;94406.72;;;12.04;100.00
8075;BME280;4080;42.676;23.372;2024-01-06T13:10:06;94409.53;;;12.27;100.00
8075;BME280;4080;42.676;23.372;2024-01-06T13:12:33;94410.78;;;12.43;100.00
8075;BME280;4080;42.676;23.372;2024-01-06T13:15:00;94419.72;;;12.47;100.00